Time;durP1;ratioP1;P1;durP2;ratioP2;P2;SDS_P1;SDS_P2;PMS_P1;PMS_P2;Temp;Humidity;BMP_temperature;BMP_pressure;BME280_temperature;BME280_humidity;BME280_pressure;Samples;Min_cycle;Max_cycle;Signal;HPM_P1;HPM_P2
2021/03/13 00:00:56;;;;;;;15.65;4.57;;;7.50;85.40;;;;;;5017820;28;20091;-73
2021/03/13 00:03:22;;;;;;;16.70;5.15;;;7.50;85.50;;;;;;4999768;28;20089;-80
2021/03/13 00:05:50;;;;;;;13.52;4.95;;;7.50;85.40;;;;;;5003342;28;20038;-80
2021/03/13 00:08:16;;;;;;;12.73;4.15;;;7.50;85.20;;;;;;5004015;28;20491;-74
2021/03/13 00:10:44;;;;;;;17.45;5.00;;;7.50;85.30;;;;;;5009713;28;20034;-79
2021/03/13 00:13:11;;;;;;;13.82;3.88;;;7.50;85.10;;;;;;4991827;28;20069;-76
2021/03/13 00:15:38;;;;;;;18.20;4.03;;;7.50;85.00;;;;;;5007102;28;20026;-74
2021/03/13 00:18:04;;;;;;;14.25;3.80;;;7.50;85.00;;;;;;5010444;28;20046;-73
2021/03/13 00:20:32;;;;;;;12.32;3.67;;;7.60;84.80;;;;;;5004419;28;20598;-73
2021/03/13 00:22:58;;;;;;;13.20;3.97;;;7.60;84.80;;;;;;5016621;28;20432;-75
2021/03/13 00:25:25;;;;;;;13.57;3.70;;;7.50;84.80;;;;;;5002041;28;20389;-72
2021/03/13 00:27:52;;;;;;;12.48;3.20;;;7.50;84.70;;;;;;5010740;28;20057;-72
2021/03/13 00:30:25;;;;;;;10.32;3.15;;;7.50;84.80;;;;;;5026744;28;20034;-73
2021/03/13 00:32:59;;;;;;;12.93;3.03;;;7.60;84.60;;;;;;5018607;28;20035;-74
2021/03/13 00:35:26;;;;;;;11.75;2.70;;;7.60;84.70;;;;;;5017753;28;20384;-73
2021/03/13 00:37:53;;;;;;;9.32;2.55;;;7.50;84.60;;;;;;5006006;28;20154;-74
2021/03/13 00:40:21;;;;;;;10.70;2.95;;;7.50;84.80;;;;;;5007635;28;20042;-73
2021/03/13 00:42:47;;;;;;;12.45;3.20;;;7.50;84.80;;;;;;5010498;28;20038;-73
2021/03/13 00:45:15;;;;;;;11.07;3.42;;;7.40;85.10;;;;;;5004472;28;20092;-74
2021/03/13 00:47:41;;;;;;;9.10;3.10;;;7.40;85.30;;;;;;5005378;28;20096;-73
2021/03/13 00:50:08;;;;;;;13.55;4.07;;;7.30;85.60;;;;;;5000939;28;20037;-72
2021/03/13 00:52:34;;;;;;;12.25;3.70;;;7.40;85.60;;;;;;5008205;28;20104;-73
2021/03/13 00:55:00;;;;;;;11.93;3.78;;;7.30;85.80;;;;;;5004505;28;20430;-72
2021/03/13 00:57:26;;;;;;;14.82;3.30;;;7.30;85.90;;;;;;5009062;28;20431;-73
2021/03/13 00:59:51;;;;;;;10.40;4.05;;;7.30;86.20;;;;;;5002425;28;20038;-74
2021/03/13 01:02:17;;;;;;;13.40;3.78;;;7.30;86.10;;;;;;4997148;28;20385;-76
2021/03/13 01:04:43;;;;;;;12.68;3.70;;;7.30;86.20;;;;;;5006550;28;20033;-73
2021/03/13 01:07:09;;;;;;;16.70;4.35;;;7.30;86.10;;;;;;5008941;28;20481;-73
2021/03/13 01:09:35;;;;;;;12.00;3.55;;;7.30;86.10;;;;;;5020413;28;20510;-73
2021/03/13 01:12:02;;;;;;;16.73;3.85;;;7.30;85.90;;;;;;5013661;28;20521;-72
2021/03/13 01:14:27;;;;;;;11.20;3.83;;;7.40;85.60;;;;;;5014916;28;20116;-73
2021/03/13 01:16:53;;;;;;;12.23;3.45;;;7.40;85.40;;;;;;5002718;28;20117;-76
2021/03/13 01:19:19;;;;;;;9.40;3.50;;;7.40;85.20;;;;;;5001609;28;20465;-73
2021/03/13 01:21:44;;;;;;;9.07;2.58;;;7.50;85.00;;;;;;5019797;28;20065;-73
2021/03/13 01:24:11;;;;;;;12.52;3.13;;;7.60;84.80;;;;;;5004481;28;20084;-73
2021/03/13 01:26:37;;;;;;;11.98;3.80;;;7.50;84.50;;;;;;5012244;28;20033;-74
2021/03/13 01:29:03;;;;;;;16.20;3.08;;;7.60;84.50;;;;;;5018958;28;20022;-73
2021/03/13 01:31:28;;;;;;;16.48;3.72;;;7.60;84.60;;;;;;5004514;28;20089;-74
2021/03/13 01:33:54;;;;;;;12.25;3.20;;;7.60;85.00;;;;;;4998395;28;20034;-74
2021/03/13 01:36:20;;;;;;;9.25;3.35;;;7.60;85.20;;;;;;5004237;28;21548;-78
2021/03/13 01:38:45;;;;;;;10.40;2.90;;;7.60;85.20;;;;;;5006743;28;20037;-73
2021/03/13 01:41:11;;;;;;;14.45;3.63;;;7.60;85.30;;;;;;5022774;28;20061;-73
2021/03/13 01:43:38;;;;;;;11.85;2.70;;;7.60;85.10;;;;;;5008516;28;20026;-73
2021/03/13 01:46:04;;;;;;;11.20;3.03;;;7.60;85.10;;;;;;5007069;28;20025;-73
2021/03/13 01:48:36;;;;;;;11.32;3.08;;;7.60;85.00;;;;;;5006275;28;20045;-73
2021/03/13 01:51:03;;;;;;;11.57;3.13;;;7.70;84.90;;;;;;5007724;28;20137;-75
2021/03/13 01:53:29;;;;;;;8.10;3.65;;;7.70;84.90;;;;;;5001599;28;20036;-74
2021/03/13 01:55:55;;;;;;;11.60;3.42;;;7.70;84.70;;;;;;5006706;28;20221;-74
2021/03/13 01:58:20;;;;;;;11.63;3.28;;;7.80;84.50;;;;;;5006777;28;20076;-73
2021/03/13 02:00:46;;;;;;;10.20;3.47;;;7.80;84.60;;;;;;5016374;28;20386;-74
2021/03/13 02:03:12;;;;;;;15.52;3.58;;;7.80;84.90;;;;;;4997917;28;20418;-76
2021/03/13 02:05:46;;;;;;;9.93;3.10;;;7.90;85.30;;;;;;5000113;28;20030;-72
2021/03/13 02:08:27;;;;;;;9.88;3.10;;;7.90;85.60;;;;;;5003343;28;20550;-73
2021/03/13 02:11:18;;;;;;;14.25;3.45;;;7.90;85.70;;;;;;5005438;28;20034;-73
2021/03/13 02:14:03;;;;;;;13.88;3.47;;;7.90;85.60;;;;;;4997167;28;20549;-73
2021/03/13 02:16:44;;;;;;;10.47;3.40;;;7.90;85.70;;;;;;4996464;28;20121;-72
2021/03/13 02:19:31;;;;;;;13.48;3.40;;;7.90;85.70;;;;;;5006276;28;20288;-75
2021/03/13 02:22:03;;;;;;;12.50;3.60;;;7.90;85.90;;;;;;5004438;28;20372;-72
2021/03/13 02:24:28;;;;;;;16.13;3.40;;;7.90;86.10;;;;;;4998753;28;20476;-75
2021/03/13 02:27:13;;;;;;;14.13;4.15;;;7.90;86.30;;;;;;5006549;28;20033;-76
2021/03/13 02:29:55;;;;;;;16.17;3.47;;;7.90;86.30;;;;;;4994986;28;20042;-72
2021/03/13 02:32:28;;;;;;;11.63;3.25;;;7.90;86.30;;;;;;5008622;28;20113;-73
2021/03/13 02:35:15;;;;;;;15.95;3.90;;;7.90;86.50;;;;;;5022210;28;20461;-73
2021/03/13 02:37:47;;;;;;;14.55;3.60;;;7.90;86.70;;;;;;5018221;28;20022;-74
2021/03/13 02:40:18;;;;;;;14.82;3.33;;;7.90;86.60;;;;;;5002267;28;20478;-73
2021/03/13 02:42:55;;;;;;;13.57;4.07;;;7.90;86.70;;;;;;5011108;28;20038;-73
2021/03/13 02:45:27;;;;;;;16.35;3.53;;;8.00;86.80;;;;;;5001964;28;20042;-75
2021/03/13 02:47:53;;;;;;;13.80;3.65;;;7.90;86.80;;;;;;4995530;28;20472;-73
2021/03/13 02:50:20;;;;;;;16.75;3.58;;;7.90;86.90;;;;;;4998943;28;20041;-73
2021/03/13 02:52:50;;;;;;;13.75;3.22;;;7.90;87.00;;;;;;4997966;28;20033;-72
2021/03/13 02:55:16;;;;;;;12.63;3.67;;;7.90;86.90;;;;;;4997058;28;20034;-79
2021/03/13 02:57:44;;;;;;;12.05;2.80;;;8.00;86.70;;;;;;5002366;28;20041;-74
2021/03/13 03:00:15;;;;;;;12.05;3.55;;;8.00;86.60;;;;;;4996097;28;20101;-74
2021/03/13 03:02:45;;;;;;;14.38;2.95;;;8.00;86.50;;;;;;5007891;28;20029;-73
2021/03/13 03:05:11;;;;;;;11.05;2.63;;;8.00;86.30;;;;;;5011505;28;20030;-74
2021/03/13 03:07:37;;;;;;;11.05;3.15;;;8.00;85.80;;;;;;5014986;28;20065;-74
2021/03/13 03:10:07;;;;;;;11.70;2.67;;;8.10;85.70;;;;;;5003897;28;20034;-77
2021/03/13 03:12:33;;;;;;;11.80;2.88;;;8.20;85.30;;;;;;5003618;28;20030;-75
2021/03/13 03:15:00;;;;;;;12.18;2.65;;;8.10;85.00;;;;;;5013373;28;20439;-78
2021/03/13 03:17:27;;;;;;;13.80;3.15;;;8.10;85.10;;;;;;5016882;28;20072;-73
2021/03/13 03:19:54;;;;;;;16.10;2.78;;;8.20;85.00;;;;;;5012776;28;20064;-74
2021/03/13 03:22:21;;;;;;;12.15;2.55;;;8.20;84.90;;;;;;5008793;28;20038;-79
2021/03/13 03:24:47;;;;;;;10.15;2.65;;;8.20;84.90;;;;;;5019294;28;20068;-76
2021/03/13 03:27:12;;;;;;;9.93;2.85;;;8.20;85.00;;;;;;5026793;28;20170;-73
2021/03/13 03:29:39;;;;;;;12.85;2.45;;;8.30;85.00;;;;;;5010899;28;20512;-73
2021/03/13 03:32:05;;;;;;;11.85;2.47;;;8.20;85.30;;;;;;5010658;28;20026;-72
2021/03/13 03:34:31;;;;;;;10.65;2.67;;;8.30;85.30;;;;;;5005866;28;20036;-73
2021/03/13 03:36:56;;;;;;;10.80;3.67;;;8.30;85.20;;;;;;5016877;28;20077;-73
2021/03/13 03:39:22;;;;;;;11.00;2.63;;;8.30;85.20;;;;;;5005293;28;20322;-81
2021/03/13 03:41:54;;;;;;;13.43;2.78;;;8.30;85.10;;;;;;5008258;28;20369;-73
2021/03/13 03:44:27;;;;;;;12.38;3.17;;;8.30;85.20;;;;;;5000386;28;20030;-75
2021/03/13 03:46:58;;;;;;;11.77;2.90;;;8.30;85.30;;;;;;5012942;28;20053;-73
2021/03/13 03:49:24;;;;;;;10.95;3.17;;;8.30;85.60;;;;;;5010775;28;20053;-74
2021/03/13 03:51:53;;;;;;;14.63;2.70;;;8.30;85.80;;;;;;5006440;28;20537;-73
2021/03/13 03:54:20;;;;;;;7.85;2.45;;;8.30;86.10;;;;;;5010574;28;20029;-78
2021/03/13 03:56:46;;;;;;;10.90;2.75;;;8.30;86.50;;;;;;5007420;28;20104;-76
2021/03/13 03:59:18;;;;;;;13.00;2.65;;;8.30;86.70;;;;;;5009418;28;20158;-74
2021/03/13 04:01:49;;;;;;;10.43;2.95;;;8.30;86.80;;;;;;5007562;28;20041;-74
2021/03/13 04:04:22;;;;;;;11.48;3.08;;;8.20;86.90;;;;;;5016866;28;20038;-75
2021/03/13 04:06:49;;;;;;;6.55;2.17;;;8.20;87.30;;;;;;5023004;28;20037;-75
2021/03/13 04:09:19;;;;;;;12.60;2.60;;;8.20;87.60;;;;;;5012867;28;20134;-77
2021/03/13 04:11:47;;;;;;;10.30;2.70;;;8.20;87.80;;;;;;5012886;28;20033;-73
2021/03/13 04:14:13;;;;;;;15.13;2.28;;;8.20;88.00;;;;;;5007472;28;20027;-72
2021/03/13 04:16:39;;;;;;;11.23;2.58;;;8.10;88.30;;;;;;5014938;28;20049;-74
2021/03/13 04:19:05;;;;;;;9.95;2.50;;;8.10;88.30;;;;;;5004257;28;20152;-73
2021/03/13 04:21:31;;;;;;;10.90;2.50;;;8.10;88.40;;;;;;5005558;28;20063;-73
2021/03/13 04:23:58;;;;;;;10.55;2.20;;;8.10;88.40;;;;;;5010656;28;20030;-75
2021/03/13 04:26:25;;;;;;;10.68;2.28;;;8.10;88.40;;;;;;5003293;28;20469;-79
2021/03/13 04:28:51;;;;;;;11.90;2.63;;;8.10;88.50;;;;;;5001713;28;20100;-75
2021/03/13 04:31:22;;;;;;;9.38;2.75;;;8.10;88.60;;;;;;5007067;28;20037;-73
2021/03/13 04:33:49;;;;;;;13.40;2.78;;;8.10;88.60;;;;;;5002182;28;20061;-73
2021/03/13 04:36:15;;;;;;;9.93;2.60;;;8.10;88.70;;;;;;5002123;28;20512;-74
2021/03/13 04:38:41;;;;;;;11.95;2.67;;;8.20;88.70;;;;;;5004888;28;20034;-77
2021/03/13 04:41:08;;;;;;;12.15;3.13;;;8.20;88.70;;;;;;5011822;28;20034;-73
2021/03/13 04:43:35;;;;;;;8.07;1.80;;;8.10;88.70;;;;;;5006505;28;20377;-73
2021/03/13 04:46:02;;;;;;;9.20;2.00;;;7.50;86.20;;;;;;5005352;28;20056;-78
2021/03/13 04:48:31;;;;;;;7.10;2.53;;;6.90;86.60;;;;;;5004716;28;20030;-73
2021/03/13 04:50:59;;;;;;;8.98;2.13;;;6.80;86.70;;;;;;5004634;28;20040;-75
2021/03/13 04:53:24;;;;;;;6.78;2.03;;;6.70;86.80;;;;;;5006350;28;20109;-76
2021/03/13 04:55:50;;;;;;;6.97;1.83;;;6.60;86.30;;;;;;5003250;28;20155;-73
2021/03/13 04:58:16;;;;;;;6.70;1.88;;;6.60;85.90;;;;;;5016622;28;20030;-77
2021/03/13 05:00:41;;;;;;;13.95;2.10;;;6.60;86.00;;;;;;5010036;28;20125;-73
2021/03/13 05:03:07;;;;;;;5.43;1.80;;;6.60;86.20;;;;;;5031113;28;20025;-75
2021/03/13 05:05:33;;;;;;;8.38;1.92;;;6.70;86.20;;;;;;5008063;28;20540;-74
2021/03/13 05:08:01;;;;;;;11.18;2.35;;;6.70;86.50;;;;;;5008988;28;20034;-74
2021/03/13 05:10:28;;;;;;;8.13;1.90;;;6.80;86.50;;;;;;5009551;28;20069;-74
2021/03/13 05:12:54;;;;;;;8.80;3.03;;;6.80;86.00;;;;;;5015363;28;20045;-73
2021/03/13 05:15:20;;;;;;;9.85;2.13;;;6.90;85.60;;;;;;5002180;28;20034;-76
2021/03/13 05:17:45;;;;;;;8.95;1.85;;;6.90;85.00;;;;;;5015400;28;20042;-78
2021/03/13 05:20:12;;;;;;;9.10;2.45;;;6.80;84.90;;;;;;5011842;28;20034;-75
2021/03/13 05:22:38;;;;;;;8.52;2.20;;;6.80;84.60;;;;;;4997183;28;20027;-73
2021/03/13 05:25:05;;;;;;;7.47;1.63;;;6.80;84.20;;;;;;5003010;28;20044;-76
2021/03/13 05:27:30;;;;;;;8.43;2.22;;;6.80;83.80;;;;;;5006202;28;20026;-74
2021/03/13 05:29:57;;;;;;;9.05;2.33;;;6.80;83.60;;;;;;4999136;28;20045;-73
2021/03/13 05:32:23;;;;;;;8.85;2.33;;;6.80;82.30;;;;;;5010027;28;20116;-74
2021/03/13 05:34:50;;;;;;;8.90;1.85;;;6.80;82.30;;;;;;4999427;28;20121;-75
2021/03/13 05:37:15;;;;;;;8.50;2.38;;;6.80;82.20;;;;;;5000386;28;20117;-76
2021/03/13 05:39:41;;;;;;;12.50;2.22;;;6.80;82.10;;;;;;5008047;28;20496;-72
2021/03/13 05:42:09;;;;;;;11.45;2.05;;;6.80;82.20;;;;;;5016381;28;20040;-74
2021/03/13 05:44:35;;;;;;;11.52;2.60;;;6.70;82.40;;;;;;5014127;28;20374;-73
2021/03/13 05:47:02;;;;;;;10.60;2.17;;;6.70;82.70;;;;;;5022652;28;20032;-76
2021/03/13 05:49:31;;;;;;;11.40;3.03;;;6.60;82.90;;;;;;5008066;28;20034;-79
2021/03/13 05:51:58;;;;;;;11.82;2.40;;;6.70;82.70;;;;;;5025987;28;20061;-73
2021/03/13 05:54:24;;;;;;;9.93;2.25;;;6.60;82.80;;;;;;5008161;28;20257;-74
2021/03/13 05:56:50;;;;;;;9.35;2.53;;;6.60;82.80;;;;;;5011426;28;20503;-74
2021/03/13 05:59:16;;;;;;;9.43;1.98;;;6.60;82.90;;;;;;5007408;28;20421;-73
2021/03/13 06:01:42;;;;;;;8.70;2.00;;;6.60;82.70;;;;;;5023140;28;20084;-74
2021/03/13 06:04:08;;;;;;;12.95;2.55;;;6.60;82.70;;;;;;5006300;28;20034;-73
2021/03/13 06:06:38;;;;;;;12.25;3.00;;;6.60;82.80;;;;;;4998730;28;20504;-73
2021/03/13 06:09:04;;;;;;;7.70;2.28;;;6.60;82.40;;;;;;5006130;28;20034;-75
2021/03/13 06:11:30;;;;;;;11.02;2.90;;;6.60;82.50;;;;;;5010966;28;20038;-73
2021/03/13 06:13:56;;;;;;;10.90;3.45;;;6.60;82.10;;;;;;5003033;28;20461;-74
2021/03/13 06:16:25;;;;;;;10.52;2.10;;;6.60;82.40;;;;;;5003522;28;20034;-74
2021/03/13 06:18:53;;;;;;;11.50;2.42;;;6.50;82.60;;;;;;4996065;28;20046;-73
2021/03/13 06:21:40;;;;;;;14.82;3.15;;;6.60;82.10;;;;;;5007689;28;20077;-72
2021/03/13 06:24:28;;;;;;;10.40;2.58;;;6.60;82.20;;;;;;4999451;28;21258;-75
2021/03/13 06:26:55;;;;;;;16.52;2.85;;;6.60;82.10;;;;;;5002082;28;20038;-76
2021/03/13 06:29:22;;;;;;;13.55;3.10;;;6.60;82.30;;;;;;5005751;28;20049;-73
2021/03/13 06:32:06;;;;;;;11.02;2.72;;;6.70;82.10;;;;;;5007554;28;20052;-74
2021/03/13 06:34:32;;;;;;;15.15;2.13;;;6.70;82.20;;;;;;4998458;28;20042;-72
2021/03/13 06:37:28;;;;;;;20.73;3.35;;;6.70;81.90;;;;;;5001949;28;20022;-73
2021/03/13 06:39:56;;;;;;;11.40;2.78;;;6.70;81.90;;;;;;4993978;28;20038;-76
2021/03/13 06:42:31;;;;;;;17.27;2.97;;;6.80;81.80;;;;;;5003628;28;20493;-75
2021/03/13 06:45:03;;;;;;;12.98;3.20;;;6.80;81.80;;;;;;5003637;28;20017;-77
2021/03/13 06:47:29;;;;;;;19.05;3.00;;;6.80;81.90;;;;;;5001514;28;20042;-74
2021/03/13 06:50:09;;;;;;;15.75;3.30;;;6.90;81.90;;;;;;5017292;28;20026;-72
2021/03/13 06:52:35;;;;;;;11.00;2.85;;;6.90;82.10;;;;;;5002553;28;20037;-73
2021/03/13 06:55:01;;;;;;;10.98;3.13;;;6.90;81.90;;;;;;5012491;28;20053;-76
2021/03/13 06:57:27;;;;;;;12.80;2.25;;;7.00;81.90;;;;;;4998772;28;20466;-73
2021/03/13 06:59:56;;;;;;;13.18;2.38;;;7.10;81.80;;;;;;5016179;28;20029;-77
2021/03/13 07:02:22;;;;;;;14.02;2.70;;;7.10;81.50;;;;;;4997608;28;20038;-74
2021/03/13 07:04:47;;;;;;;13.43;3.00;;;7.10;81.70;;;;;;5015558;28;20049;-74
2021/03/13 07:07:26;;;;;;;11.50;2.83;;;7.10;81.60;;;;;;5000783;28;20496;-72
2021/03/13 07:09:58;;;;;;;14.60;2.50;;;7.10;81.40;;;;;;5000284;28;20488;-75
2021/03/13 07:12:24;;;;;;;21.10;3.17;;;7.20;81.30;;;;;;4998880;28;20075;-74
2021/03/13 07:14:51;;;;;;;14.85;2.92;;;7.20;81.10;;;;;;5016034;28;20426;-74
2021/03/13 07:17:17;;;;;;;13.57;3.80;;;7.20;81.20;;;;;;4993917;28;20046;-73
2021/03/13 07:19:43;;;;;;;13.82;3.90;;;7.30;81.10;;;;;;4998485;28;20491;-78
2021/03/13 07:22:13;;;;;;;19.55;3.78;;;7.40;81.00;;;;;;4997970;28;20030;-75
2021/03/13 07:24:53;;;;;;;18.58;3.78;;;7.50;80.80;;;;;;4998592;28;20026;-74
2021/03/13 07:27:21;;;;;;;17.60;3.97;;;7.60;80.60;;;;;;4995758;28;20096;-73
2021/03/13 07:29:48;;;;;;;19.73;4.43;;;7.60;80.30;;;;;;4999869;28;20030;-73
2021/03/13 07:32:20;;;;;;;19.08;3.53;;;7.70;80.40;;;;;;5019632;28;20041;-73
2021/03/13 07:34:47;;;;;;;18.80;3.92;;;7.60;80.50;;;;;;4998645;28;20034;-73
2021/03/13 07:37:17;;;;;;;19.30;4.20;;;7.60;80.20;;;;;;5001541;28;20107;-72
2021/03/13 07:39:49;;;;;;;18.50;3.70;;;7.70;80.50;;;;;;4997127;28;20058;-69
2021/03/13 07:42:20;;;;;;;19.67;4.00;;;7.70;80.80;;;;;;5000366;28;20042;-69
2021/03/13 07:44:46;;;;;;;16.85;4.43;;;7.70;81.00;;;;;;4997323;28;20031;-70
2021/03/13 07:47:17;;;;;;;21.65;4.13;;;7.70;81.30;;;;;;5000951;28;20038;-70
2021/03/13 07:49:43;;;;;;;19.63;4.45;;;7.70;80.80;;;;;;4996020;28;20026;-69
2021/03/13 07:52:11;;;;;;;20.30;4.88;;;7.80;80.30;;;;;;4994666;28;20093;-69
2021/03/13 07:54:41;;;;;;;21.02;4.38;;;7.80;79.90;;;;;;5001399;28;20038;-70
2021/03/13 07:57:09;;;;;;;21.30;4.85;;;7.90;78.90;;;;;;5000783;28;20365;-72
2021/03/13 07:59:45;;;;;;;26.60;4.35;;;8.00;77.80;;;;;;4996476;28;20037;-70
2021/03/13 08:02:29;;;;;;;23.33;5.13;;;8.20;78.00;;;;;;4996383;28;20042;-69
2021/03/13 08:05:02;;;;;;;24.05;4.38;;;8.40;76.50;;;;;;5016504;28;20070;-70
2021/03/13 08:07:48;;;;;;;26.17;4.90;;;8.40;74.60;;;;;;5000581;28;20093;-71
2021/03/13 08:10:40;;;;;;;21.30;5.72;;;8.40;74.80;;;;;;4990672;28;20045;-69
2021/03/13 08:13:10;;;;;;;24.45;5.88;;;8.50;73.90;;;;;;4999437;28;20037;-69
2021/03/13 08:15:44;;;;;;;23.33;5.57;;;8.60;74.00;;;;;;4997947;28;20042;-70
2021/03/13 08:18:13;;;;;;;23.55;4.65;;;8.70;72.60;;;;;;5003829;28;20477;-70
2021/03/13 08:20:39;;;;;;;23.27;5.32;;;8.80;72.80;;;;;;5000913;28;20045;-72
2021/03/13 08:23:13;;;;;;;25.52;6.03;;;8.90;71.90;;;;;;5018127;28;20029;-72
2021/03/13 08:25:57;;;;;;;31.33;5.72;;;9.00;71.00;;;;;;4999903;28;20044;-71
2021/03/13 08:28:47;;;;;;;20.88;4.68;;;8.90;70.70;;;;;;4994580;28;20465;-68
2021/03/13 08:31:25;;;;;;;27.98;6.47;;;9.00;71.40;;;;;;4998628;28;20466;-71
2021/03/13 08:34:19;;;;;;;26.10;5.57;;;9.20;70.90;;;;;;5016140;28;20039;-68
2021/03/13 08:36:49;;;;;;;29.07;5.93;;;9.20;69.80;;;;;;4993308;28;20056;-67
2021/03/13 08:39:25;;;;;;;28.00;6.35;;;9.10;69.90;;;;;;4995749;28;20045;-68
2021/03/13 08:41:53;;;;;;;28.83;6.20;;;9.10;70.70;;;;;;4998865;28;20026;-71
2021/03/13 08:44:19;;;;;;;28.63;5.45;;;9.00;70.40;;;;;;5000273;28;20107;-68
2021/03/13 08:46:57;;;;;;;22.08;5.15;;;9.00;71.30;;;;;;4996522;28;20038;-72
2021/03/13 08:49:26;;;;;;;25.90;5.18;;;9.00;71.60;;;;;;4996485;28;20077;-68
2021/03/13 08:52:09;;;;;;;25.08;6.30;;;9.10;72.10;;;;;;5005162;28;20042;-70
2021/03/13 08:54:38;;;;;;;26.73;6.00;;;9.20;72.00;;;;;;4994644;28;20034;-69
2021/03/13 08:57:24;;;;;;;22.85;4.75;;;9.40;70.80;;;;;;5000370;28;20125;-68
2021/03/13 08:59:56;;;;;;;25.75;5.55;;;9.50;70.30;;;;;;5000281;28;20042;-69
2021/03/13 09:02:50;;;;;;;29.35;6.47;;;9.70;68.90;;;;;;4996387;28;20066;-68
2021/03/13 09:05:18;;;;;;;26.58;5.97;;;9.70;68.60;;;;;;4993672;28;20034;-68
2021/03/13 09:07:49;;;;;;;24.02;5.20;;;9.80;67.80;;;;;;5009029;28;20081;-69
2021/03/13 09:10:16;;;;;;;23.70;5.38;;;9.70;67.70;;;;;;4999305;28;20030;-68
2021/03/13 09:12:44;;;;;;;25.15;5.35;;;9.70;66.50;;;;;;4995070;28;20041;-69
2021/03/13 09:15:11;;;;;;;22.17;4.40;;;9.80;66.60;;;;;;5001942;28;20088;-68
2021/03/13 09:17:36;;;;;;;25.95;5.03;;;9.70;67.40;;;;;;5003831;28;20038;-68
2021/03/13 09:20:13;;;;;;;24.52;5.72;;;9.60;68.40;;;;;;5002271;28;20112;-70
2021/03/13 09:22:41;;;;;;;26.00;5.75;;;9.70;68.00;;;;;;5001680;28;20034;-69
2021/03/13 09:25:07;;;;;;;22.23;4.88;;;9.70;69.00;;;;;;5004172;28;20125;-68
2021/03/13 09:27:37;;;;;;;26.17;5.88;;;9.90;68.80;;;;;;5010905;28;20026;-69
2021/03/13 09:30:11;;;;;;;21.50;4.50;;;10.10;68.40;;;;;;4999645;28;20034;-69
2021/03/13 09:32:45;;;;;;;24.55;5.25;;;10.30;68.20;;;;;;5010602;28;20088;-69
2021/03/13 09:35:12;;;;;;;28.10;5.78;;;10.30;67.00;;;;;;5003076;28;20480;-69
2021/03/13 09:37:39;;;;;;;26.88;4.75;;;10.10;66.40;;;;;;5005192;28;20029;-70
2021/03/13 09:40:06;;;;;;;25.13;5.30;;;10.00;66.80;;;;;;4998451;28;20097;-71
2021/03/13 09:42:33;;;;;;;22.90;4.88;;;9.80;67.00;;;;;;5001496;28;21808;-70
2021/03/13 09:45:05;;;;;;;25.60;4.82;;;10.10;67.30;;;;;;4994972;28;20026;-71
2021/03/13 09:47:37;;;;;;;20.15;4.28;;;10.10;65.10;;;;;;4997844;28;20026;-69
2021/03/13 09:50:25;;;;;;;24.80;5.10;;;10.20;64.20;;;;;;5001337;28;20037;-69
2021/03/13 09:52:51;;;;;;;20.88;5.28;;;10.20;63.70;;;;;;5003326;28;20109;-69
2021/03/13 09:55:17;;;;;;;17.98;4.55;;;10.10;64.30;;;;;;5000786;28;20037;-71
2021/03/13 09:57:46;;;;;;;23.58;4.95;;;10.10;64.00;;;;;;4991534;28;20061;-69
2021/03/13 10:00:17;;;;;;;22.13;4.38;;;10.50;63.40;;;;;;4994703;28;20045;-70
2021/03/13 10:02:43;;;;;;;17.35;4.32;;;10.70;62.20;;;;;;4995522;28;20026;-69
2021/03/13 10:05:12;;;;;;;18.88;4.32;;;10.70;62.20;;;;;;4995363;28;20064;-69
2021/03/13 10:07:42;;;;;;;26.20;4.75;;;10.60;61.80;;;;;;4995023;28;20030;-69
2021/03/13 10:10:10;;;;;;;23.92;4.35;;;10.50;61.50;;;;;;4993226;28;20042;-70
2021/03/13 10:12:42;;;;;;;18.60;5.13;;;10.50;62.30;;;;;;4995675;28;20026;-69
2021/03/13 10:15:25;;;;;;;28.05;3.80;;;10.50;62.70;;;;;;4994746;28;20430;-69
2021/03/13 10:17:55;;;;;;;13.45;3.47;;;10.70;62.10;;;;;;5020733;28;20038;-69
2021/03/13 10:20:24;;;;;;;15.52;3.67;;;10.80;60.00;;;;;;5003118;28;20042;-69
2021/03/13 10:22:50;;;;;;;21.98;4.00;;;10.70;61.20;;;;;;4987954;28;20034;-69
2021/03/13 10:25:15;;;;;;;17.30;3.70;;;10.60;61.70;;;;;;4978704;28;20428;-70
2021/03/13 10:27:41;;;;;;;20.08;5.22;;;10.50;62.20;;;;;;4988188;28;20370;-70
2021/03/13 10:30:09;;;;;;;21.92;4.70;;;10.30;63.60;;;;;;4986785;28;20029;-68
2021/03/13 10:32:37;;;;;;;21.13;5.47;;;10.20;64.10;;;;;;4991220;28;20501;-71
2021/03/13 10:35:28;;;;;;;21.15;4.93;;;10.00;65.60;;;;;;4986124;28;20043;-70
2021/03/13 10:37:59;;;;;;;26.92;4.95;;;10.00;66.10;;;;;;4984297;28;20029;-69
2021/03/13 10:40:33;;;;;;;26.25;4.88;;;10.00;66.50;;;;;;4985127;28;20565;-68
2021/03/13 10:43:20;;;;;;;22.10;4.70;;;10.20;65.50;;;;;;4984674;28;20037;-70
2021/03/13 10:46:03;;;;;;;21.17;4.90;;;10.40;63.40;;;;;;4982762;28;20042;-70
2021/03/13 10:48:31;;;;;;;22.13;4.68;;;10.40;63.70;;;;;;4984818;28;20041;-69
2021/03/13 10:50:57;;;;;;;19.48;4.53;;;10.20;64.90;;;;;;4988419;28;20041;-69
2021/03/13 10:53:40;;;;;;;20.00;4.40;;;10.20;64.90;;;;;;4984235;28;20547;-68
2021/03/13 10:56:10;;;;;;;20.02;4.03;;;10.50;63.90;;;;;;4983371;28;20022;-69
2021/03/13 10:58:38;;;;;;;19.63;4.32;;;10.50;60.60;;;;;;4986243;28;20096;-68
2021/03/13 11:01:07;;;;;;;22.20;4.93;;;10.40;61.90;;;;;;4991982;28;20050;-70
2021/03/13 11:03:34;;;;;;;19.35;3.90;;;10.40;62.50;;;;;;4984671;28;20034;-70
2021/03/13 11:06:00;;;;;;;18.73;4.05;;;10.20;63.80;;;;;;4980006;28;20036;-71
2021/03/13 11:08:26;;;;;;;16.00;4.05;;;10.10;63.50;;;;;;4995225;28;20046;-71
2021/03/13 11:10:53;;;;;;;16.25;3.88;;;10.10;60.90;;;;;;4979763;28;20049;-69
2021/03/13 11:13:20;;;;;;;13.90;3.25;;;10.00;60.60;;;;;;4990915;28;20038;-71
2021/03/13 11:15:46;;;;;;;15.32;3.95;;;10.10;60.50;;;;;;4986138;28;20486;-69
2021/03/13 11:18:12;;;;;;;17.67;3.05;;;10.10;60.10;;;;;;4992243;28;20046;-71
2021/03/13 11:20:38;;;;;;;15.85;3.22;;;10.00;58.50;;;;;;4982713;28;20127;-68
2021/03/13 11:23:05;;;;;;;14.00;2.97;;;10.10;59.00;;;;;;4987595;28;20729;-72
2021/03/13 11:25:31;;;;;;;19.25;3.38;;;10.10;58.00;;;;;;4997784;28;20034;-72
2021/03/13 11:27:57;;;;;;;13.68;3.63;;;10.10;58.70;;;;;;4995611;28;20034;-70
2021/03/13 11:30:23;;;;;;;13.02;3.28;;;10.10;57.80;;;;;;5004032;28;20419;-69
2021/03/13 11:32:49;;;;;;;14.00;3.45;;;10.50;58.20;;;;;;5003719;28;20022;-71
2021/03/13 11:35:17;;;;;;;14.70;3.35;;;10.50;56.70;;;;;;5006815;28;20497;-69
2021/03/13 11:37:43;;;;;;;15.57;3.10;;;10.50;57.00;;;;;;5005504;28;20324;-71
2021/03/13 11:40:10;;;;;;;14.95;3.03;;;10.70;56.50;;;;;;5002759;28;20037;-69
2021/03/13 11:42:36;;;;;;;14.55;3.58;;;11.10;56.90;;;;;;5004144;28;20456;-69
2021/03/13 11:45:06;;;;;;;16.00;3.60;;;11.50;55.20;;;;;;5002483;28;20104;-69
2021/03/13 11:47:33;;;;;;;12.20;3.55;;;11.60;55.80;;;;;;4994435;28;20044;-68
2021/03/13 11:49:59;;;;;;;14.40;3.45;;;11.50;55.20;;;;;;5001486;28;20089;-70
2021/03/13 11:52:25;;;;;;;15.80;3.50;;;11.20;55.90;;;;;;5003434;28;20034;-69
2021/03/13 11:54:51;;;;;;;13.63;3.13;;;11.00;56.90;;;;;;5006162;28;20030;-68
2021/03/13 11:57:18;;;;;;;16.70;3.22;;;10.70;56.20;;;;;;4997951;28;20025;-68
2021/03/13 11:59:47;;;;;;;13.73;2.97;;;10.60;55.40;;;;;;4999589;28;20041;-68
2021/03/13 12:02:17;;;;;;;13.20;2.97;;;10.50;56.40;;;;;;5005307;28;20038;-68
2021/03/13 12:04:43;;;;;;;17.65;4.53;;;10.70;56.30;;;;;;4998741;28;20029;-68
2021/03/13 12:07:10;;;;;;;15.10;3.05;;;10.80;56.30;;;;;;5002692;28;20042;-70
2021/03/13 12:09:36;;;;;;;12.57;3.30;;;10.70;56.70;;;;;;5002964;28;20033;-68
2021/03/13 12:12:05;;;;;;;15.55;3.20;;;10.60;57.30;;;;;;5002077;28;20041;-68
2021/03/13 12:14:30;;;;;;;19.73;4.43;;;10.50;56.80;;;;;;4999129;28;20042;-69
2021/03/13 12:16:56;;;;;;;15.65;3.15;;;10.60;57.60;;;;;;4999888;28;20492;-69
2021/03/13 12:19:22;;;;;;;11.73;3.03;;;10.60;56.80;;;;;;5000718;28;20058;-69
2021/03/13 12:21:50;;;;;;;18.45;3.95;;;11.00;55.90;;;;;;4998283;28;20116;-70
2021/03/13 12:24:16;;;;;;;13.18;3.05;;;11.10;54.80;;;;;;4997344;28;20422;-69
2021/03/13 12:26:42;;;;;;;11.80;2.75;;;11.00;56.00;;;;;;4994637;28;20038;-69
2021/03/13 12:29:07;;;;;;;15.85;3.47;;;11.10;56.50;;;;;;4993686;28;20045;-69
2021/03/13 12:31:33;;;;;;;14.75;3.05;;;11.10;54.90;;;;;;4999321;28;20048;-68
2021/03/13 12:33:59;;;;;;;14.32;3.30;;;10.80;56.00;;;;;;5000097;28;20029;-68
2021/03/13 12:36:24;;;;;;;15.07;3.13;;;10.90;56.30;;;;;;5010563;28;20529;-69
2021/03/13 12:38:50;;;;;;;11.43;3.25;;;10.70;56.60;;;;;;5001527;28;20034;-68
2021/03/13 12:41:16;;;;;;;17.73;3.78;;;10.70;57.20;;;;;;5005233;28;20469;-68
2021/03/13 12:43:42;;;;;;;12.18;2.85;;;10.60;56.60;;;;;;4999765;28;20076;-69
2021/03/13 12:46:14;;;;;;;14.65;3.45;;;10.60;57.40;;;;;;5004624;28;20030;-69
2021/03/13 12:48:40;;;;;;;15.32;3.67;;;10.60;57.80;;;;;;5008033;28;20025;-68
2021/03/13 12:51:05;;;;;;;20.02;4.45;;;10.50;58.10;;;;;;5013129;28;20081;-68
2021/03/13 12:53:31;;;;;;;14.25;3.40;;;10.60;58.40;;;;;;5008599;28;20030;-67
2021/03/13 12:55:57;;;;;;;14.57;3.00;;;10.70;56.90;;;;;;5013665;28;20109;-68